Time;durP1;ratioP1;P1;durP2;ratioP2;P2;SDS_P1;SDS_P2;PMS_P1;PMS_P2;Temp;Humidity;BMP_temperature;BMP_pressure;BME280_temperature;BME280_humidity;BME280_pressure;Samples;Min_cycle;Max_cycle;Signal;HPM_P1;HPM_P2
2022/10/28 00:01:11;;;;;;;13.95;5.85;;;14.50;91.40;;;;;;5033647;28;20208;-90
2022/10/28 00:03:42;;;;;;;12.48;6.38;;;14.60;91.40;;;;;;5017379;28;20619;-89
2022/10/28 00:06:11;;;;;;;7.30;5.55;;;14.70;91.30;;;;;;5016717;28;20596;-90
2022/10/28 00:08:37;;;;;;;14.48;6.53;;;14.60;91.30;;;;;;5016097;28;20172;-90
2022/10/28 00:11:09;;;;;;;8.15;5.60;;;14.70;91.30;;;;;;5016182;28;20549;-90
2022/10/28 00:13:36;;;;;;;7.68;5.82;;;14.60;91.30;;;;;;5016308;28;20183;-89
2022/10/28 00:16:11;;;;;;;8.57;6.32;;;14.60;91.30;;;;;;5015815;28;20181;-90
2022/10/28 00:18:36;;;;;;;7.50;5.82;;;14.50;91.20;;;;;;5016089;28;20191;-90
2022/10/28 00:21:10;;;;;;;12.30;7.57;;;14.50;91.20;;;;;;5016278;28;20212;-89
2022/10/28 00:23:36;;;;;;;11.80;6.47;;;14.40;91.30;;;;;;5015895;28;20631;-90
2022/10/28 00:26:10;;;;;;;13.30;5.93;;;14.40;91.30;;;;;;5016568;28;20314;-90
2022/10/28 00:28:44;;;;;;;14.73;7.43;;;14.40;91.40;;;;;;5033558;28;20153;-90
2022/10/28 00:31:12;;;;;;;11.43;6.10;;;14.30;91.40;;;;;;5016124;28;20343;-90
2022/10/28 00:33:38;;;;;;;9.27;5.90;;;14.30;91.40;;;;;;5033563;28;20196;-90
2022/10/28 00:36:10;;;;;;;12.07;5.85;;;14.30;91.40;;;;;;5033433;28;20661;-90
2022/10/28 00:38:36;;;;;;;13.23;5.82;;;14.30;91.50;;;;;;5015872;28;20172;-90
2022/10/28 00:41:02;;;;;;;11.02;5.70;;;14.20;91.40;;;;;;5033262;28;20211;-90
2022/10/28 00:43:35;;;;;;;11.88;6.03;;;14.20;91.40;;;;;;5033460;28;20165;-90
2022/10/28 00:46:01;;;;;;;9.38;6.07;;;14.10;91.30;;;;;;5015997;28;20173;-90
2022/10/28 00:48:27;;;;;;;11.45;5.50;;;14.10;91.40;;;;;;5033335;28;20173;-90
2022/10/28 00:50:53;;;;;;;13.07;5.57;;;14.00;91.30;;;;;;5033174;28;20188;-90
2022/10/28 00:53:28;;;;;;;8.98;5.35;;;13.90;91.30;;;;;;5015775;28;20267;-90
2022/10/28 00:55:55;;;;;;;7.63;5.55;;;13.80;91.30;;;;;;5015852;28;20176;-90
2022/10/28 00:58:23;;;;;;;7.45;6.57;;;13.70;91.30;;;;;;5015766;28;20184;-90
2022/10/28 01:00:48;;;;;;;7.72;6.30;;;13.70;91.40;;;;;;5015449;28;20713;-90
2022/10/28 01:03:15;;;;;;;18.17;7.27;;;13.60;91.40;;;;;;5017865;28;20208;-90
2022/10/28 01:05:42;;;;;;;13.57;6.43;;;13.70;91.90;;;;;;5036740;28;20180;-89
2022/10/28 01:08:08;;;;;;;12.75;6.15;;;13.80;92.00;;;;;;5018986;28;20168;-90
2022/10/28 01:10:53;;;;;;;10.70;6.67;;;13.70;91.80;;;;;;5036689;28;20747;-90
2022/10/28 01:13:32;;;;;;;12.38;5.97;;;13.50;91.70;;;;;;5019580;28;20203;-90
2022/10/28 01:16:04;;;;;;;17.98;7.25;;;13.30;91.70;;;;;;5019074;28;20207;-90
2022/10/28 01:18:56;;;;;;;15.82;7.15;;;13.30;91.90;;;;;;5019007;28;20219;-90
2022/10/28 01:21:47;;;;;;;12.60;6.63;;;13.30;91.90;;;;;;5018870;28;20215;-90
2022/10/28 01:24:45;;;;;;;13.65;6.78;;;13.20;92.00;;;;;;5036877;28;20176;-90
2022/10/28 01:27:16;;;;;;;17.07;6.63;;;13.20;92.00;;;;;;5019396;28;20169;-90
2022/10/28 01:30:05;;;;;;;17.13;7.10;;;13.20;92.10;;;;;;5019364;28;20619;-90
2022/10/28 01:32:51;;;;;;;10.03;7.33;;;13.20;92.20;;;;;;5008310;28;20209;-90
2022/10/28 01:35:26;;;;;;;7.77;6.47;;;13.10;92.20;;;;;;5019420;28;20177;-90
2022/10/28 01:38:11;;;;;;;9.77;7.00;;;13.10;92.20;;;;;;5036533;28;20161;-90
2022/10/28 01:40:57;;;;;;;9.47;5.77;;;13.00;92.20;;;;;;5018614;28;20623;-90
2022/10/28 01:43:32;;;;;;;7.03;5.40;;;13.00;92.20;;;;;;5019177;28;20260;-90
2022/10/28 01:46:19;;;;;;;17.13;6.40;;;13.00;92.20;;;;;;5018338;28;20167;-90
2022/10/28 01:49:17;;;;;;;11.13;6.00;;;13.00;92.30;;;;;;5018595;28;20211;-90
2022/10/28 01:51:51;;;;;;;10.52;5.80;;;13.00;92.20;;;;;;5015356;28;20331;-90
2022/10/28 01:54:21;;;;;;;13.40;7.18;;;13.00;92.20;;;;;;5018436;28;20244;-90
2022/10/28 01:56:48;;;;;;;13.35;6.97;;;13.00;92.30;;;;;;5036275;28;20591;-90
2022/10/28 01:59:19;;;;;;;11.52;6.70;;;13.00;92.40;;;;;;5035819;28;20177;-90
2022/10/28 02:01:45;;;;;;;14.65;7.15;;;13.00;92.40;;;;;;5018079;28;20211;-90
2022/10/28 02:04:11;;;;;;;13.70;7.60;;;12.90;92.40;;;;;;5035822;28;20176;-90
2022/10/28 02:06:39;;;;;;;9.73;7.47;;;13.00;92.40;;;;;;5018514;28;20670;-90
2022/10/28 02:09:38;;;;;;;10.48;6.75;;;13.10;92.50;;;;;;5018179;28;20172;-90
2022/10/28 02:12:27;;;;;;;10.95;7.03;;;13.10;92.60;;;;;;4994733;28;20212;-90
2022/10/28 02:14:55;;;;;;;14.77;6.70;;;13.10;92.60;;;;;;5018310;28;20724;-90
2022/10/28 02:17:48;;;;;;;11.88;7.07;;;13.20;92.60;;;;;;5017892;28;20175;-90
2022/10/28 02:20:26;;;;;;;11.40;6.95;;;13.20;92.60;;;;;;5035690;28;20223;-90
2022/10/28 02:22:58;;;;;;;13.05;6.43;;;13.10;92.50;;;;;;5017610;28;20192;-90
2022/10/28 02:25:41;;;;;;;10.73;6.57;;;13.10;92.60;;;;;;5017782;28;20172;-90
2022/10/28 02:28:09;;;;;;;10.17;5.60;;;13.00;92.50;;;;;;5035779;28;20149;-90
2022/10/28 02:30:43;;;;;;;10.53;6.07;;;12.90;92.40;;;;;;5017931;28;20188;-90
2022/10/28 02:33:12;;;;;;;9.90;5.70;;;12.80;92.30;;;;;;5018267;28;20191;-90
2022/10/28 02:35:45;;;;;;;15.67;8.10;;;12.80;92.20;;;;;;5017776;28;20173;-90
2022/10/28 02:38:16;;;;;;;13.23;8.33;;;12.80;92.30;;;;;;5035610;28;20199;-90
2022/10/28 02:40:47;;;;;;;11.83;7.90;;;12.80;92.40;;;;;;5035181;28;20204;-90
2022/10/28 02:43:16;;;;;;;10.90;8.20;;;12.70;92.40;;;;;;5017822;28;20658;-90
2022/10/28 02:45:46;;;;;;;12.27;7.97;;;12.70;92.50;;;;;;5017862;28;20173;-90
2022/10/28 02:48:16;;;;;;;12.40;8.17;;;12.80;92.60;;;;;;5017638;28;20635;-90
2022/10/28 02:50:50;;;;;;;18.83;8.93;;;12.80;92.60;;;;;;5018197;28;20177;-90
2022/10/28 02:53:20;;;;;;;13.50;8.57;;;12.80;92.70;;;;;;5018316;28;20173;-90
2022/10/28 02:55:51;;;;;;;13.57;8.90;;;12.90;92.80;;;;;;5017195;28;20248;-90
2022/10/28 02:58:17;;;;;;;11.83;8.33;;;12.90;92.80;;;;;;5017133;28;20286;-90
2022/10/28 03:00:44;;;;;;;11.67;8.00;;;12.80;92.90;;;;;;5034639;28;20203;-90
2022/10/28 03:03:09;;;;;;;12.37;8.33;;;12.80;92.90;;;;;;5034784;28;20164;-90
2022/10/28 03:05:35;;;;;;;10.07;8.67;;;12.90;92.90;;;;;;5017239;28;20199;-90
2022/10/28 03:08:00;;;;;;;13.27;9.07;;;12.90;93.00;;;;;;5035129;28;20200;-90
2022/10/28 03:10:26;;;;;;;13.20;9.17;;;12.90;93.00;;;;;;5017203;28;20212;-90
2022/10/28 03:12:51;;;;;;;13.07;8.40;;;13.00;93.10;;;;;;5016818;28;20581;-90
2022/10/28 03:15:17;;;;;;;20.47;9.30;;;13.00;93.10;;;;;;5016798;28;20185;-90
2022/10/28 03:17:42;;;;;;;12.67;9.10;;;13.00;93.20;;;;;;5017045;28;20185;-90
2022/10/28 03:20:08;;;;;;;14.27;9.03;;;13.10;93.30;;;;;;5016976;28;20224;-90
2022/10/28 03:22:34;;;;;;;12.23;9.23;;;13.20;93.40;;;;;;5016870;28;20288;-90
2022/10/28 03:24:59;;;;;;;14.40;9.73;;;13.20;93.40;;;;;;5033926;28;20208;-90
2022/10/28 03:27:25;;;;;;;23.37;10.93;;;13.30;93.50;;;;;;5034237;28;20187;-90
2022/10/28 03:29:50;;;;;;;15.80;10.17;;;13.30;93.60;;;;;;5017627;28;20173;-90
2022/10/28 03:32:16;;;;;;;16.57;9.63;;;13.30;93.60;;;;;;5016676;28;20200;-90
2022/10/28 03:34:41;;;;;;;21.58;9.80;;;13.40;93.60;;;;;;5035054;28;20192;-90
2022/10/28 03:37:07;;;;;;;13.82;9.90;;;13.50;93.70;;;;;;5016781;28;20183;-90
2022/10/28 03:39:33;;;;;;;17.97;9.87;;;13.50;93.70;;;;;;5016505;28;20230;-90
2022/10/28 03:41:58;;;;;;;21.37;9.03;;;13.50;93.70;;;;;;5016069;28;20208;-90
2022/10/28 03:44:24;;;;;;;16.67;9.77;;;13.50;93.70;;;;;;5016721;28;20181;-90
2022/10/28 03:46:49;;;;;;;13.70;9.40;;;13.50;93.70;;;;;;5016219;28;20177;-90
2022/10/28 03:49:15;;;;;;;12.48;8.50;;;13.40;93.70;;;;;;5033859;28;20256;-90
2022/10/28 03:51:40;;;;;;;20.70;10.00;;;13.40;93.70;;;;;;5016339;28;20223;-90
2022/10/28 03:54:06;;;;;;;16.55;9.10;;;13.40;93.70;;;;;;5016306;28;20195;-90
2022/10/28 03:56:31;;;;;;;24.23;9.40;;;13.40;93.70;;;;;;5033827;28;20180;-90
2022/10/28 03:58:57;;;;;;;18.10;9.23;;;13.40;93.70;;;;;;5016268;28;20227;-90
2022/10/28 04:01:22;;;;;;;20.98;9.73;;;13.30;93.70;;;;;;5033630;28;20236;-91
2022/10/28 04:03:48;;;;;;;17.13;8.95;;;13.40;93.70;;;;;;5016146;28;20176;-90
2022/10/28 04:06:13;;;;;;;17.10;8.25;;;13.30;93.70;;;;;;5015994;28;20176;-90
2022/10/28 04:08:39;;;;;;;18.33;8.35;;;13.30;93.70;;;;;;5015906;28;20172;-90
2022/10/28 04:11:05;;;;;;;13.70;8.75;;;13.30;93.70;;;;;;5016014;28;20200;-89
2022/10/28 04:13:30;;;;;;;10.02;7.88;;;13.30;93.70;;;;;;5015893;28;20558;-90
2022/10/28 04:15:56;;;;;;;13.20;9.10;;;13.30;93.70;;;;;;5015914;28;20180;-90
2022/10/28 04:18:22;;;;;;;16.13;8.95;;;13.30;93.70;;;;;;5016253;28;20176;-90
2022/10/28 04:20:47;;;;;;;17.67;8.43;;;13.40;93.80;;;;;;5016049;28;20208;-89
2022/10/28 04:23:15;;;;;;;12.40;8.15;;;13.50;93.80;;;;;;5019517;28;20172;-90
2022/10/28 04:25:40;;;;;;;14.63;8.95;;;13.40;93.70;;;;;;5016707;28;20545;-90
2022/10/28 04:28:06;;;;;;;11.70;8.20;;;13.40;93.70;;;;;;5016167;28;20248;-90
2022/10/28 04:30:31;;;;;;;13.90;8.63;;;13.30;93.70;;;;;;5015795;28;20234;-90
2022/10/28 04:32:57;;;;;;;17.63;8.63;;;13.30;93.70;;;;;;5033438;28;20200;-90
2022/10/28 04:35:23;;;;;;;12.55;8.07;;;13.30;93.70;;;;;;5016507;28;20188;-90
2022/10/28 04:37:48;;;;;;;11.60;8.00;;;13.30;93.70;;;;;;5019283;28;20180;-90
2022/10/28 04:40:14;;;;;;;21.40;8.23;;;13.20;93.70;;;;;;5019503;28;20695;-90
2022/10/28 04:42:39;;;;;;;19.58;8.40;;;13.20;93.70;;;;;;5019722;28;20687;-90
2022/10/28 04:45:06;;;;;;;8.27;7.38;;;13.20;93.70;;;;;;5019672;28;20219;-90
2022/10/28 04:47:31;;;;;;;12.93;8.27;;;13.20;93.70;;;;;;5037502;28;20185;-90
2022/10/28 04:49:57;;;;;;;13.57;7.45;;;13.20;93.70;;;;;;5019477;28;20173;-90
2022/10/28 04:52:22;;;;;;;13.00;7.00;;;13.20;93.70;;;;;;5019726;28;20199;-90
2022/10/28 04:54:48;;;;;;;19.77;7.33;;;13.10;93.70;;;;;;5019743;28;20238;-89
2022/10/28 04:57:13;;;;;;;11.98;7.00;;;13.00;93.60;;;;;;5019491;28;20200;-90
2022/10/28 04:59:39;;;;;;;13.02;7.50;;;13.00;93.60;;;;;;5020274;28;20267;-90
2022/10/28 05:02:05;;;;;;;10.70;7.07;;;12.90;93.60;;;;;;5019589;28;20208;-90
2022/10/28 05:04:30;;;;;;;13.80;8.57;;;12.90;93.60;;;;;;5037015;28;20188;-90
2022/10/28 05:06:56;;;;;;;17.13;8.25;;;12.90;93.50;;;;;;5019154;28;20238;-90
2022/10/28 05:09:21;;;;;;;14.48;8.10;;;12.90;93.60;;;;;;5019389;28;20223;-90
2022/10/28 05:11:47;;;;;;;16.95;8.27;;;12.90;93.60;;;;;;5019405;28;20227;-90
2022/10/28 05:14:12;;;;;;;10.02;7.28;;;12.90;93.50;;;;;;5019134;28;20195;-90
2022/10/28 05:16:38;;;;;;;12.27;7.43;;;12.90;93.50;;;;;;5036702;28;20176;-90
2022/10/28 05:19:03;;;;;;;11.83;7.20;;;12.80;93.40;;;;;;5018979;28;20199;-89
2022/10/28 05:21:29;;;;;;;13.60;7.55;;;12.80;93.40;;;;;;5036555;28;20240;-90
2022/10/28 05:23:54;;;;;;;15.13;8.07;;;12.80;93.40;;;;;;5020244;28;20215;-90
2022/10/28 05:26:20;;;;;;;9.67;7.90;;;12.70;93.40;;;;;;5018901;28;20215;-90
2022/10/28 05:28:49;;;;;;;18.20;8.60;;;12.80;93.40;;;;;;5019879;28;20187;-90
2022/10/28 05:31:15;;;;;;;15.40;8.37;;;12.70;93.40;;;;;;5019133;28;20197;-90
2022/10/28 05:33:41;;;;;;;16.70;8.20;;;12.80;93.50;;;;;;5018720;28;20199;-90
2022/10/28 05:36:06;;;;;;;19.13;8.53;;;12.70;93.40;;;;;;5018543;28;20176;-90
2022/10/28 05:38:32;;;;;;;16.43;8.40;;;12.70;93.40;;;;;;5018709;28;20188;-90
2022/10/28 05:40:57;;;;;;;18.07;9.50;;;12.70;93.50;;;;;;5018748;28;20239;-90
2022/10/28 05:43:23;;;;;;;15.23;8.60;;;12.70;93.50;;;;;;5018773;28;20180;-90
2022/10/28 05:45:53;;;;;;;18.47;9.40;;;12.70;93.50;;;;;;5018598;28;20185;-90
2022/10/28 05:48:19;;;;;;;20.17;8.93;;;12.70;93.50;;;;;;5018008;28;20212;-90
2022/10/28 05:50:44;;;;;;;20.03;9.10;;;12.70;93.50;;;;;;5036020;28;20196;-90
2022/10/28 05:53:10;;;;;;;16.00;8.83;;;12.70;93.50;;;;;;5018500;28;20181;-90
2022/10/28 05:55:35;;;;;;;17.90;8.77;;;12.70;93.60;;;;;;5018710;28;20183;-90
2022/10/28 05:58:01;;;;;;;12.67;9.17;;;12.80;93.60;;;;;;5036876;28;20231;-88
2022/10/28 06:00:27;;;;;;;18.17;9.27;;;12.70;93.60;;;;;;5018925;28;20583;-89
2022/10/28 06:03:08;;;;;;;12.17;8.93;;;12.70;93.60;;;;;;5020175;28;20204;-88
2022/10/28 06:05:34;;;;;;;15.30;10.17;;;12.70;93.60;;;;;;5018817;28;20176;-90
2022/10/28 06:07:59;;;;;;;15.87;9.40;;;12.80;93.80;;;;;;5018076;28;20173;-90
2022/10/28 06:10:25;;;;;;;15.50;9.30;;;12.80;93.80;;;;;;5018018;28;20280;-90
2022/10/28 06:12:53;;;;;;;12.77;9.43;;;12.80;93.70;;;;;;5018015;28;20205;-90
2022/10/28 06:15:18;;;;;;;23.03;9.37;;;12.70;93.70;;;;;;5017878;28;20212;-90
2022/10/28 06:17:47;;;;;;;12.93;8.30;;;12.70;93.70;;;;;;5036140;28;20250;-90
2022/10/28 06:20:13;;;;;;;15.80;9.07;;;12.70;93.70;;;;;;5017908;28;20176;-90
2022/10/28 06:22:49;;;;;;;15.35;9.75;;;12.70;93.80;;;;;;5035568;28;20185;-90
2022/10/28 06:25:15;;;;;;;19.57;9.37;;;12.70;93.80;;;;;;5035514;28;20623;-90
2022/10/28 06:27:40;;;;;;;18.47;10.03;;;12.70;93.80;;;;;;5035732;28;20228;-90
2022/10/28 06:30:06;;;;;;;19.50;9.63;;;12.60;93.80;;;;;;5017702;28;20264;-90
2022/10/28 06:32:32;;;;;;;17.17;9.40;;;12.70;93.80;;;;;;5035388;28;20197;-90
2022/10/28 06:34:58;;;;;;;20.83;10.33;;;12.70;93.80;;;;;;5017547;28;20279;-90
2022/10/28 06:37:23;;;;;;;19.07;9.67;;;12.80;94.00;;;;;;5017540;28;20173;-90
2022/10/28 06:39:51;;;;;;;18.30;9.77;;;12.80;93.90;;;;;;5017270;28;20173;-90
2022/10/28 06:42:17;;;;;;;20.50;11.20;;;12.80;93.90;;;;;;5034762;28;20204;-90
2022/10/28 06:44:43;;;;;;;23.67;10.10;;;12.80;93.90;;;;;;5017259;28;20635;-90
2022/10/28 06:47:08;;;;;;;18.10;9.70;;;12.80;94.00;;;;;;5017250;28;20252;-90
2022/10/28 06:49:34;;;;;;;12.80;9.10;;;12.80;93.90;;;;;;5017506;28;20177;-91
2022/10/28 06:51:59;;;;;;;17.03;8.70;;;12.80;93.90;;;;;;5017560;28;20247;-90
2022/10/28 06:54:25;;;;;;;21.60;9.73;;;12.80;93.90;;;;;;5017265;28;20176;-90
2022/10/28 06:56:50;;;;;;;14.93;10.30;;;12.80;94.00;;;;;;5034761;28;20184;-90
2022/10/28 06:59:16;;;;;;;15.90;10.53;;;12.80;94.00;;;;;;5016735;28;20183;-91
2022/10/28 07:01:41;;;;;;;20.47;10.53;;;12.70;94.00;;;;;;5016399;28;20205;-90
2022/10/28 07:04:11;;;;;;;21.17;10.70;;;12.80;94.00;;;;;;5016725;28;20205;-90
2022/10/28 07:06:36;;;;;;;16.37;10.80;;;12.80;94.00;;;;;;5016782;28;20176;-90
2022/10/28 07:09:02;;;;;;;17.73;10.80;;;12.80;94.10;;;;;;5017910;28;20176;-90
2022/10/28 07:11:27;;;;;;;16.40;10.60;;;12.80;94.10;;;;;;5034474;28;20192;-90
2022/10/28 07:13:53;;;;;;;27.50;11.77;;;12.80;94.10;;;;;;5016632;28;20180;-90
2022/10/28 07:16:18;;;;;;;12.23;10.87;;;12.90;94.20;;;;;;5016966;28;20203;-91
2022/10/28 07:18:44;;;;;;;19.10;11.30;;;13.00;94.20;;;;;;5016693;28;20192;-90
2022/10/28 07:21:09;;;;;;;16.00;10.67;;;13.00;94.30;;;;;;5016514;28;20213;-90
2022/10/28 07:23:35;;;;;;;20.77;9.03;;;13.10;94.30;;;;;;5016670;28;20198;-91
2022/10/28 07:26:01;;;;;;;23.80;12.40;;;13.20;94.40;;;;;;5016588;28;20187;-90
2022/10/28 07:28:27;;;;;;;16.60;11.10;;;13.30;94.40;;;;;;5034703;28;20169;-90
2022/10/28 07:30:52;;;;;;;18.30;11.47;;;13.50;94.40;;;;;;5016724;28;20181;-90
2022/10/28 07:33:18;;;;;;;16.80;10.77;;;13.60;94.40;;;;;;5016581;28;20191;-90
2022/10/28 07:35:44;;;;;;;18.47;11.10;;;13.70;94.30;;;;;;5034116;28;20153;-90
2022/10/28 07:38:10;;;;;;;23.50;10.30;;;13.80;94.20;;;;;;5016463;28;20187;-90
2022/10/28 07:40:36;;;;;;;17.60;10.60;;;13.80;94.10;;;;;;5016186;28;20204;-90
2022/10/28 07:43:01;;;;;;;18.97;9.40;;;13.90;94.00;;;;;;5016055;28;20193;-90
2022/10/28 07:45:27;;;;;;;16.90;9.80;;;14.00;93.90;;;;;;5016707;28;20255;-90
2022/10/28 07:47:52;;;;;;;16.42;10.50;;;14.10;93.80;;;;;;5016203;28;20173;-90
2022/10/28 07:50:18;;;;;;;15.13;9.13;;;14.10;93.60;;;;;;5016195;28;20677;-90
2022/10/28 07:52:44;;;;;;;13.20;10.27;;;14.20;93.50;;;;;;5016043;28;20559;-90
2022/10/28 07:55:10;;;;;;;20.47;9.93;;;14.20;93.50;;;;;;5017679;28;20640;-89
2022/10/28 07:57:37;;;;;;;12.93;9.25;;;14.30;93.30;;;;;;5016095;28;20172;-89
2022/10/28 08:00:05;;;;;;;12.30;9.03;;;14.30;93.20;;;;;;5033463;28;20173;-90
2022/10/28 08:02:30;;;;;;;15.33;9.60;;;14.40;93.10;;;;;;5016607;28;20595;-89
2022/10/28 08:04:56;;;;;;;17.00;9.10;;;14.50;93.00;;;;;;5015811;28;20242;-89
2022/10/28 08:07:22;;;;;;;16.67;9.07;;;14.50;92.70;;;;;;5015957;28;20655;-90
2022/10/28 08:09:47;;;;;;;12.55;8.85;;;14.70;92.50;;;;;;5016015;28;20678;-90
2022/10/28 08:12:14;;;;;;;15.23;9.80;;;14.80;92.30;;;;;;5015847;28;20678;-90
2022/10/28 08:14:40;;;;;;;16.92;8.23;;;14.80;92.30;;;;;;5015799;28;20180;-90
2022/10/28 08:17:06;;;;;;;13.43;8.45;;;14.80;92.10;;;;;;5015605;28;20177;-90
2022/10/28 08:19:31;;;;;;;11.63;8.07;;;14.90;92.00;;;;;;5016122;28;20211;-90
2022/10/28 08:21:58;;;;;;;17.45;8.23;;;14.90;91.90;;;;;;5015870;28;20262;-89
2022/10/28 08:24:23;;;;;;;17.67;8.77;;;15.00;91.80;;;;;;5033426;28;20177;-90
2022/10/28 08:26:50;;;;;;;14.07;8.23;;;15.10;91.60;;;;;;5016103;28;20267;-90
2022/10/28 08:29:16;;;;;;;15.45;7.65;;;15.10;91.50;;;;;;5015515;28;20239;-90
2022/10/28 08:31:41;;;;;;;24.00;8.60;;;15.20;91.30;;;;;;5015469;28;20646;-90
2022/10/28 08:34:07;;;;;;;14.07;7.82;;;15.30;91.30;;;;;;5033101;28;20199;-90
2022/10/28 08:36:33;;;;;;;17.70;7.80;;;15.30;91.20;;;;;;5015754;28;20203;-90
2022/10/28 08:39:00;;;;;;;13.48;8.00;;;15.40;91.10;;;;;;5033190;28;20609;-90
2022/10/28 08:41:48;;;;;;;19.60;7.88;;;15.50;90.80;;;;;;5015290;28;20208;-90
2022/10/28 08:44:54;;;;;;;12.40;6.88;;;15.60;90.70;;;;;;5015610;28;20567;-90
2022/10/28 08:47:54;;;;;;;18.52;7.55;;;15.70;90.30;;;;;;5015593;28;20195;-90
2022/10/28 08:50:23;;;;;;;14.00;7.55;;;15.80;90.10;;;;;;5016290;28;20244;-89
2022/10/28 08:53:09;;;;;;;20.17;7.50;;;15.90;90.10;;;;;;5020085;28;20224;-89
2022/10/28 08:55:42;;;;;;;12.60;7.15;;;16.00;89.90;;;;;;5017023;28;20171;-90
2022/10/28 08:58:32;;;;;;;14.75;6.45;;;16.10;89.70;;;;;;5034717;28;20153;-90
2022/10/28 09:00:58;;;;;;;17.15;7.00;;;16.00;89.30;;;;;;5015472;28;20208;-88
2022/10/28 09:03:27;;;;;;;12.85;6.60;;;16.20;89.30;;;;;;5015705;28;20177;-89
2022/10/28 09:06:02;;;;;;;16.38;6.95;;;16.30;89.10;;;;;;5015368;28;20546;-88
2022/10/28 09:08:39;;;;;;;12.63;5.88;;;16.40;88.90;;;;;;5015912;28;20165;-89
2022/10/28 09:11:32;;;;;;;17.75;6.82;;;16.40;88.60;;;;;;5015353;28;20636;-90
2022/10/28 09:14:16;;;;;;;10.50;6.30;;;16.50;88.30;;;;;;5015938;28;20169;-90
2022/10/28 09:16:47;;;;;;;15.07;6.32;;;16.60;88.00;;;;;;5015321;28;20161;-91
2022/10/28 09:19:33;;;;;;;22.67;7.30;;;16.70;88.30;;;;;;5016042;28;20173;-91
2022/10/28 09:22:02;;;;;;;12.40;6.57;;;16.80;87.60;;;;;;5033235;28;20215;-90
2022/10/28 09:24:50;;;;;;;15.40;6.28;;;16.90;87.40;;;;;;5018004;28;20260;-90
2022/10/28 09:27:18;;;;;;;18.35;7.30;;;17.00;87.20;;;;;;5019566;28;20169;-92
2022/10/28 09:30:04;;;;;;;9.82;5.45;;;17.20;86.90;;;;;;5020223;28;20176;-91
2022/10/28 09:32:55;;;;;;;12.23;5.85;;;17.20;86.20;;;;;;5019035;28;20283;-91
2022/10/28 09:35:24;;;;;;;18.92;7.65;;;17.30;86.60;;;;;;5019091;28;20193;-89
2022/10/28 09:38:12;;;;;;;14.07;5.10;;;17.40;86.60;;;;;;5018745;28;20172;-87
2022/10/28 09:40:42;;;;;;;15.90;5.25;;;17.60;86.30;;;;;;5018459;28;20728;-88
2022/10/28 09:43:28;;;;;;;16.98;6.60;;;17.70;86.20;;;;;;5018115;28;20177;-88
2022/10/28 09:46:06;;;;;;;17.88;5.10;;;17.80;85.70;;;;;;5018063;28;20169;-87
2022/10/28 09:48:36;;;;;;;13.13;6.40;;;17.90;85.70;;;;;;5018121;28;20696;-88
2022/10/28 09:51:02;;;;;;;14.70;5.70;;;18.00;85.80;;;;;;5035960;28;20196;-87
2022/10/28 09:54:06;;;;;;;10.30;5.13;;;18.10;85.40;;;;;;5018100;28;20654;-87
2022/10/28 09:56:32;;;;;;;15.10;4.43;;;18.30;84.20;;;;;;5031993;28;20281;-87
2022/10/28 09:59:00;;;;;;;11.43;4.80;;;18.50;81.50;;;;;;5035655;28;20176;-87
2022/10/28 10:01:30;;;;;;;13.98;4.60;;;18.80;80.50;;;;;;5035456;28;20266;-87
2022/10/28 10:03:56;;;;;;;12.10;4.80;;;19.00;80.60;;;;;;5017855;28;20523;-87
2022/10/28 10:06:37;;;;;;;17.95;4.47;;;19.00;79.30;;;;;;5017689;28;20184;-87
2022/10/28 10:09:03;;;;;;;13.25;4.13;;;19.00;79.50;;;;;;5017753;28;20176;-88
2022/10/28 10:11:37;;;;;;;12.68;4.68;;;19.00;78.20;;;;;;5017706;28;20201;-87
2022/10/28 10:14:07;;;;;;;14.27;4.25;;;19.10;78.80;;;;;;5018013;28;20180;-88
2022/10/28 10:16:32;;;;;;;17.30;5.18;;;19.20;79.00;;;;;;5035250;28;20177;-88
2022/10/28 10:19:01;;;;;;;13.57;4.82;;;19.20;78.30;;;;;;5035270;28;20175;-87
2022/10/28 10:21:49;;;;;;;11.68;4.13;;;19.30;77.60;;;;;;5017457;28;20213;-86
2022/10/28 10:24:25;;;;;;;12.10;4.97;;;19.40;77.90;;;;;;5018928;28;20518;-88
2022/10/28 10:26:51;;;;;;;17.35;5.43;;;19.60;77.40;;;;;;5018657;28;20255;-87
2022/10/28 10:29:18;;;;;;;14.40;4.95;;;19.60;76.40;;;;;;5035100;28;20177;-87
2022/10/28 10:31:45;;;;;;;13.10;4.47;;;19.70;77.50;;;;;;5017323;28;20223;-88
2022/10/28 10:34:23;;;;;;;9.38;4.30;;;19.80;77.60;;;;;;5016906;28;20211;-88
2022/10/28 10:36:50;;;;;;;13.48;5.13;;;19.80;75.60;;;;;;5017381;28;20172;-88
2022/10/28 10:39:31;;;;;;;10.90;4.40;;;19.90;76.20;;;;;;5017310;28;20180;-88
2022/10/28 10:41:57;;;;;;;15.15;4.72;;;20.00;75.00;;;;;;5034878;28;20200;-88
2022/10/28 10:44:33;;;;;;;19.35;4.93;;;20.00;75.90;;;;;;5017159;28;20216;-88
2022/10/28 10:46:58;;;;;;;17.88;4.82;;;20.10;76.00;;;;;;5017139;28;20179;-88
2022/10/28 10:49:24;;;;;;;14.48;4.97;;;20.10;75.30;;;;;;5017159;28;20180;-88
2022/10/28 10:51:56;;;;;;;13.50;4.70;;;20.10;74.00;;;;;;5017095;28;20205;-88
2022/10/28 10:54:23;;;;;;;12.23;4.47;;;20.30;75.40;;;;;;5017031;28;20267;-88
2022/10/28 10:56:49;;;;;;;18.25;4.32;;;20.40;75.40;;;;;;5017033;28;20176;-89
2022/10/28 10:59:27;;;;;;;15.18;4.60;;;20.30;73.50;;;;;;5017121;28;20181;-88
2022/10/28 11:01:54;;;;;;;18.55;4.72;;;20.40;74.70;;;;;;5034593;28;20247;-88
2022/10/28 11:04:23;;;;;;;12.38;5.13;;;20.50;73.90;;;;;;5016853;28;20219;-88
2022/10/28 11:06:51;;;;;;;16.05;4.75;;;20.50;74.80;;;;;;5034546;28;20540;-88
2022/10/28 11:09:28;;;;;;;14.77;5.22;;;20.40;74.40;;;;;;5016859;28;20177;-88
2022/10/28 11:11:55;;;;;;;16.98;4.20;;;20.40;74.60;;;;;;5016684;28;20283;-88
2022/10/28 11:14:29;;;;;;;14.25;4.95;;;20.50;75.40;;;;;;5016649;28;20181;-88
2022/10/28 11:16:59;;;;;;;9.68;3.63;;;20.50;74.50;;;;;;5016561;28;20177;-88
2022/10/28 11:19:34;;;;;;;15.48;4.47;;;20.60;74.60;;;;;;5016452;28;20596;-87
2022/10/28 11:22:10;;;;;;;18.50;4.88;;;20.70;73.10;;;;;;5034054;28;20287;-88
2022/10/28 11:24:50;;;;;;;18.27;4.20;;;20.70;73.70;;;;;;5034148;28;20175;-88
2022/10/28 11:27:52;;;;;;;15.43;4.50;;;20.70;74.40;;;;;;5016582;28;20291;-89
2022/10/28 11:30:20;;;;;;;13.32;4.50;;;20.70;73.90;;;;;;5016776;28;20549;-88
2022/10/28 11:33:11;;;;;;;12.77;4.35;;;20.80;73.70;;;;;;5016476;28;20216;-88
2022/10/28 11:35:57;;;;;;;10.50;3.85;;;20.80;73.90;;;;;;5016454;28;20259;-87
2022/10/28 11:38:46;;;;;;;17.90;4.72;;;20.80;73.70;;;;;;5016872;28;20172;-87
2022/10/28 11:41:17;;;;;;;10.27;4.32;;;20.80;73.70;;;;;;5016051;28;20208;-88
2022/10/28 11:43:57;;;;;;;15.77;3.90;;;20.70;73.30;;;;;;5016279;28;20605;-88
2022/10/28 11:47:00;;;;;;;14.45;5.00;;;20.60;74.30;;;;;;5015749;28;20175;-87
2022/10/28 11:49:32;;;;;;;15.60;4.20;;;20.50;74.60;;;;;;5016164;28;20180;-87
2022/10/28 11:52:21;;;;;;;9.25;3.75;;;20.50;75.10;;;;;;5016285;28;20287;-88
2022/10/28 11:54:52;;;;;;;20.33;4.20;;;20.70;74.90;;;;;;5016416;28;20177;-87
2022/10/28 11:57:26;;;;;;;10.18;4.53;;;20.90;73.90;;;;;;5033872;28;20177;-89
2022/10/28 12:00:21;;;;;;;15.00;4.97;;;21.10;73.80;;;;;;5033497;28;20175;-88
2022/10/28 12:03:20;;;;;;;16.38;5.28;;;21.30;73.50;;;;;;5016035;28;20728;-89
2022/10/28 12:05:53;;;;;;;20.05;4.70;;;21.40;72.40;;;;;;5033311;28;20176;-88
2022/10/28 12:08:37;;;;;;;21.02;4.70;;;21.50;72.30;;;;;;5015717;28;20180;-87
2022/10/28 12:11:20;;;;;;;18.67;3.95;;;21.50;72.60;;;;;;5033656;28;20188;-87
2022/10/28 12:14:12;;;;;;;29.27;11.63;;;21.30;72.00;;;;;;5015668;28;20199;-87
2022/10/28 12:16:56;;;;;;;24.38;9.23;;;21.00;72.60;;;;;;5015606;28;20180;-88
2022/10/28 12:19:27;;;;;;;16.30;6.47;;;20.90;73.40;;;;;;5033602;28;20168;-87
2022/10/28 12:22:05;;;;;;;17.15;4.90;;;20.80;74.70;;;;;;5033287;28;20227;-87
2022/10/28 12:24:34;;;;;;;15.75;5.03;;;20.80;74.30;;;;;;5033461;28;20177;-88
2022/10/28 12:27:08;;;;;;;15.60;4.35;;;20.80;74.20;;;;;;5015773;28;20169;-88
2022/10/28 12:29:39;;;;;;;16.35;4.60;;;20.80;74.10;;;;;;5015674;28;20654;-88
2022/10/28 12:32:10;;;;;;;15.15;5.55;;;20.70;74.30;;;;;;5015608;28;20205;-88
2022/10/28 12:34:44;;;;;;;16.65;4.53;;;20.60;73.90;;;;;;5032958;28;20200;-88
2022/10/28 12:37:17;;;;;;;17.90;4.90;;;20.60;74.80;;;;;;5015472;28;20176;-88
2022/10/28 12:40:15;;;;;;;18.77;4.90;;;20.50;75.30;;;;;;5015552;28;20215;-88
2022/10/28 12:42:56;;;;;;;15.43;5.45;;;20.50;75.30;;;;;;5033175;28;20779;-88
2022/10/28 12:45:22;;;;;;;23.67;5.72;;;20.40;75.20;;;;;;5015566;28;20645;-88
2022/10/28 12:48:28;;;;;;;18.48;4.68;;;20.50;75.20;;;;;;5015420;28;20176;-88
2022/10/28 12:51:16;;;;;;;18.50;5.97;;;20.50;75.50;;;;;;5002843;28;20673;-88
2022/10/28 12:54:14;;;;;;;17.73;4.88;;;20.60;74.60;;;;;;5015304;28;20652;-88
2022/10/28 12:56:49;;;;;;;11.38;5.38;;;20.70;74.50;;;;;;5033302;28;20161;-88